createdAt,value
2023-05-18T00:01:14.493Z,65.73
2023-05-18T00:03:42.615Z,67.96
2023-05-18T00:06:11.888Z,69.42
2023-05-18T00:08:39.482Z,69.10
2023-05-18T00:11:07.498Z,67.46
2023-05-18T00:13:35.252Z,65.84
2023-05-18T00:16:02.837Z,67.09
2023-05-18T00:18:30.905Z,65.52
2023-05-18T00:20:59.714Z,66.74
2023-05-18T00:23:30.918Z,67.69
2023-05-18T00:25:59.259Z,66.18
2023-05-18T00:28:27.252Z,66.41
2023-05-18T00:30:55.686Z,68.23
2023-05-18T00:33:23.586Z,69.16
2023-05-18T00:35:51.401Z,70.46
2023-05-18T00:38:19.049Z,67.97
2023-05-18T00:40:48.058Z,67.80
2023-05-18T00:43:15.662Z,68.42
2023-05-18T00:45:43.318Z,69.64
2023-05-18T00:48:11.075Z,70.24
2023-05-18T00:50:38.859Z,71.25
2023-05-18T00:53:06.497Z,71.48
2023-05-18T00:55:34.261Z,68.31
2023-05-18T00:58:05.341Z,66.86
2023-05-18T01:00:33.846Z,69.00
2023-05-18T01:03:02.123Z,69.44
2023-05-18T01:05:30.160Z,68.08
2023-05-18T01:07:58.082Z,66.35
2023-05-18T01:10:25.858Z,66.40
2023-05-18T01:12:57.802Z,65.22
2023-05-18T01:15:32.419Z,67.30
2023-05-18T01:18:06.107Z,65.30
2023-05-18T01:20:39.017Z,68.01
2023-05-18T01:23:30.406Z,70.31
2023-05-18T01:26:15.311Z,70.61
2023-05-18T01:28:46.233Z,70.34
2023-05-18T01:31:15.990Z,69.85
2023-05-18T01:33:43.821Z,67.14
2023-05-18T01:36:11.932Z,68.54
2023-05-18T01:38:43.107Z,68.19
2023-05-18T01:41:19.070Z,67.76
2023-05-18T01:43:53.183Z,67.15
2023-05-18T01:46:33.212Z,65.32
2023-05-18T01:49:07.934Z,65.50
2023-05-18T01:51:42.770Z,64.97
2023-05-18T01:54:12.382Z,65.60
2023-05-18T01:56:41.755Z,65.62
2023-05-18T01:59:09.540Z,65.55
2023-05-18T02:01:37.208Z,65.46
2023-05-18T02:04:09.177Z,65.34
2023-05-18T02:06:37.335Z,65.23
2023-05-18T02:09:05.599Z,65.37
2023-05-18T02:11:33.313Z,65.34
2023-05-18T02:14:02.224Z,65.62
2023-05-18T02:16:29.889Z,67.18
2023-05-18T02:18:57.530Z,67.66
2023-05-18T02:21:25.980Z,69.22
2023-05-18T02:23:53.741Z,69.65
2023-05-18T02:26:21.348Z,67.66
2023-05-18T02:28:48.979Z,66.83
2023-05-18T02:31:17.964Z,66.29
2023-05-18T02:33:45.603Z,66.70
2023-05-18T02:36:15.102Z,69.34
2023-05-18T02:38:44.662Z,68.46
2023-05-18T02:41:12.579Z,67.90
2023-05-18T02:43:40.165Z,68.83
2023-05-18T02:46:07.976Z,69.42
2023-05-18T02:48:36.990Z,68.55
2023-05-18T02:51:04.696Z,67.50
2023-05-18T02:53:32.283Z,68.59
2023-05-18T02:56:03.329Z,69.95
2023-05-18T02:58:31.102Z,67.84
2023-05-18T03:00:59.990Z,67.55
2023-05-18T03:03:27.628Z,67.53
2023-05-18T03:05:56.548Z,66.53
2023-05-18T03:08:27.090Z,68.34
2023-05-18T03:10:54.841Z,67.24
2023-05-18T03:13:22.413Z,66.71
2023-05-18T03:15:50.993Z,66.69
2023-05-18T03:18:19.060Z,66.66
2023-05-18T03:20:46.733Z,67.67
2023-05-18T03:23:15.797Z,70.01
2023-05-18T03:25:43.399Z,70.65
2023-05-18T03:28:10.970Z,69.18
2023-05-18T03:30:38.684Z,69.83
2023-05-18T03:33:06.331Z,70.36
2023-05-18T03:35:34.096Z,70.82
2023-05-18T03:38:01.731Z,70.34
2023-05-18T03:40:30.893Z,71.82
2023-05-18T03:42:58.474Z,70.05
2023-05-18T03:45:26.058Z,67.57
2023-05-18T03:47:53.726Z,67.04
2023-05-18T03:50:21.607Z,67.55
2023-05-18T03:52:49.226Z,68.75
2023-05-18T03:55:17.305Z,66.91
2023-05-18T03:57:46.200Z,69.31
2023-05-18T04:00:15.749Z,67.27
2023-05-18T04:02:43.412Z,67.96
2023-05-18T04:05:11.022Z,68.51
2023-05-18T04:07:43.971Z,68.35
2023-05-18T04:10:12.328Z,68.82
2023-05-18T04:12:40.026Z,70.18
2023-05-18T04:15:10.274Z,67.83
2023-05-18T04:17:39.699Z,67.16
2023-05-18T04:20:13.768Z,66.90
2023-05-18T04:22:46.270Z,66.47
2023-05-18T04:25:14.387Z,68.42
2023-05-18T04:27:43.207Z,69.73
2023-05-18T04:30:13.480Z,70.84
2023-05-18T04:32:42.914Z,68.96
2023-05-18T04:35:12.015Z,71.09
2023-05-18T04:37:41.275Z,69.19
2023-05-18T04:40:13.417Z,68.57
2023-05-18T04:42:45.249Z,68.36
2023-05-18T04:45:17.763Z,68.77
2023-05-18T04:47:47.167Z,70.76
2023-05-18T04:50:16.091Z,69.48
2023-05-18T04:52:48.724Z,68.95
2023-05-18T04:55:22.815Z,68.72
2023-05-18T04:57:50.559Z,68.32
2023-05-18T05:00:20.323Z,68.37
2023-05-18T05:02:48.009Z,69.81
2023-05-18T05:05:15.625Z,70.76
2023-05-18T05:07:43.189Z,69.33
2023-05-18T05:10:11.261Z,69.12
2023-05-18T05:12:39.106Z,69.20
2023-05-18T05:15:08.114Z,69.06
2023-05-18T05:17:37.029Z,69.96
2023-05-18T05:20:05.346Z,69.50
2023-05-18T05:22:32.929Z,69.29
2023-05-18T05:40:37.559Z,72.48
2023-05-18T05:44:07.479Z,72.82
2023-05-18T06:14:21.213Z,62.07
2023-05-18T06:16:49.115Z,61.91
2023-05-18T06:19:17.148Z,61.09
2023-05-18T06:21:46.856Z,60.36
2023-05-18T06:24:16.304Z,60.50
2023-05-18T06:26:45.205Z,61.44
2023-05-18T06:29:13.979Z,59.92
2023-05-18T06:35:45.714Z,59.33
2023-05-18T06:38:14.342Z,59.06
2023-05-18T06:40:59.035Z,58.85
2023-05-18T06:43:47.351Z,58.32
2023-05-18T07:04:08.557Z,57.11
2023-05-18T07:06:37.600Z,56.66
2023-05-18T07:09:05.726Z,56.62
2023-05-18T07:11:36.506Z,56.37
2023-05-18T07:14:04.259Z,57.05
2023-05-18T07:16:42.766Z,55.76
2023-05-18T07:26:35.592Z,54.40
2023-05-18T07:29:43.669Z,55.09
2023-05-18T07:39:01.859Z,54.15
2023-05-18T07:45:50.606Z,52.56
2023-05-18T07:52:54.226Z,51.83
2023-05-18T07:55:46.757Z,52.27
2023-05-18T07:58:29.959Z,51.43
2023-05-18T08:01:07.031Z,52.06
2023-05-18T08:03:43.410Z,51.79
2023-05-18T08:06:13.244Z,52.03
2023-05-18T08:08:43.555Z,51.60
2023-05-18T08:11:15.137Z,50.97
2023-05-18T08:13:44.090Z,50.32
2023-05-18T08:16:17.351Z,49.35
2023-05-18T08:18:55.427Z,49.94
2023-05-18T08:21:49.213Z,49.75
2023-05-18T08:24:30.796Z,49.98
2023-05-18T08:27:17.333Z,48.96
2023-05-18T08:30:01.056Z,48.09
2023-05-18T08:32:42.880Z,48.82
2023-05-18T08:35:11.388Z,49.05
2023-05-18T08:57:04.978Z,47.85
2023-05-18T09:00:22.217Z,45.68
2023-05-18T09:02:51.857Z,46.56
2023-05-18T09:09:01.595Z,45.41
2023-05-18T09:25:21.106Z,43.89
2023-05-18T09:30:49.901Z,43.53
2023-05-18T09:33:22.048Z,43.41
2023-05-18T09:35:51.951Z,43.65
2023-05-18T09:38:23.973Z,43.17
2023-05-18T09:40:53.582Z,43.43
2023-05-18T09:43:23.326Z,43.59
2023-05-18T09:46:00.974Z,43.10
2023-05-18T09:48:35.395Z,43.36
2023-05-18T09:54:08.432Z,42.29
2023-05-18T09:56:39.724Z,42.42
2023-05-18T09:59:26.190Z,43.06
2023-05-18T10:02:19.643Z,42.80
2023-05-18T10:04:54.344Z,42.99
2023-05-18T10:07:25.345Z,43.22
2023-05-18T10:10:03.781Z,42.25
2023-05-18T10:12:34.223Z,43.24
2023-05-18T10:15:07.144Z,42.67
2023-05-18T10:17:38.511Z,42.92
2023-05-18T10:20:11.583Z,42.46
2023-05-18T10:22:43.289Z,42.56
2023-05-18T10:30:38.873Z,41.32
2023-05-18T10:33:20.567Z,41.49
2023-05-18T10:35:53.122Z,41.74
2023-05-18T10:38:22.390Z,40.90
2023-05-18T10:40:52.141Z,41.76
2023-05-18T10:43:23.873Z,42.79
2023-05-18T10:45:55.133Z,41.62
2023-05-18T10:48:24.431Z,40.69
2023-05-18T10:50:53.573Z,40.80
2023-05-18T10:53:23.157Z,39.61
2023-05-18T10:55:51.731Z,39.32
2023-05-18T10:58:21.277Z,39.81
2023-05-18T11:00:51.964Z,40.01
2023-05-18T11:03:22.358Z,39.04
2023-05-18T11:05:51.226Z,39.79
2023-05-18T11:08:28.425Z,39.15
2023-05-18T11:11:04.350Z,40.42
2023-05-18T11:13:33.622Z,38.73
2023-05-18T11:16:08.821Z,39.04
2023-05-18T11:18:44.761Z,39.29
2023-05-18T11:21:36.555Z,37.72
2023-05-18T11:24:19.911Z,38.40
2023-05-18T11:26:49.587Z,38.29
2023-05-18T11:29:19.246Z,39.14
2023-05-18T11:31:48.089Z,41.70
2023-05-18T11:34:39.735Z,40.66
2023-05-18T11:37:10.540Z,39.66
2023-05-18T11:39:47.978Z,38.79
2023-05-18T11:42:20.552Z,38.49
2023-05-18T11:44:54.312Z,37.52
2023-05-18T11:47:22.972Z,37.94
2023-05-18T11:49:53.202Z,37.78
2023-05-18T11:52:22.935Z,38.14
2023-05-18T11:54:53.489Z,37.81
2023-05-18T11:57:25.093Z,37.37
2023-05-18T11:59:56.865Z,36.87
2023-05-18T12:02:27.241Z,37.09
2023-05-18T12:05:00.520Z,37.40
2023-05-18T12:07:30.458Z,38.10
2023-05-18T12:09:59.988Z,37.75
2023-05-18T12:12:30.448Z,38.04
2023-05-18T12:15:00.218Z,37.63
2023-05-18T12:17:41.336Z,37.38
2023-05-18T12:20:13.467Z,37.24
2023-05-18T12:22:48.164Z,37.27
2023-05-18T12:25:24.884Z,38.72
2023-05-18T12:27:56.693Z,38.03
2023-05-18T12:30:35.195Z,37.77
2023-05-18T12:33:07.901Z,37.21
2023-05-18T12:35:39.944Z,38.15
2023-05-18T12:38:09.277Z,37.43
2023-05-18T12:40:45.106Z,37.49
2023-05-18T12:43:15.572Z,37.21
2023-05-18T12:45:47.118Z,37.44
2023-05-18T12:48:16.824Z,37.24
2023-05-18T12:50:52.003Z,37.64
2023-05-18T12:53:25.043Z,37.88
2023-05-18T12:56:02.781Z,37.59
2023-05-18T12:58:36.045Z,37.15
2023-05-18T13:01:10.802Z,37.14
2023-05-18T13:03:42.515Z,38.01
2023-05-18T13:06:15.007Z,37.13
2023-05-18T13:08:46.777Z,37.68
2023-05-18T13:11:17.706Z,37.73
2023-05-18T13:14:15.644Z,37.92
2023-05-18T13:16:46.872Z,37.23
2023-05-18T13:19:20.148Z,36.80
2023-05-18T13:22:02.022Z,36.75
2023-05-18T13:24:30.358Z,37.46
2023-05-18T13:27:00.427Z,36.70
2023-05-18T13:29:28.618Z,36.94
2023-05-18T13:31:56.358Z,37.03
2023-05-18T13:34:24.460Z,37.41
2023-05-18T13:36:53.722Z,36.56
2023-05-18T13:39:22.158Z,36.74
2023-05-18T13:41:49.946Z,36.96
2023-05-18T13:44:18.280Z,36.54
2023-05-18T13:46:47.149Z,37.10
2023-05-18T13:49:14.934Z,36.99
2023-05-18T13:51:43.809Z,36.60
2023-05-18T13:54:13.265Z,36.69
2023-05-18T13:56:41.049Z,36.97
2023-05-18T13:59:08.904Z,36.84
2023-05-18T14:01:36.899Z,37.17
2023-05-18T14:04:04.731Z,37.52
2023-05-18T14:06:32.509Z,37.81
2023-05-18T14:09:01.534Z,36.84
2023-05-18T14:11:34.440Z,37.18
2023-05-18T14:14:02.598Z,36.69
2023-05-18T14:19:05.540Z,37.24
2023-05-18T14:21:33.224Z,37.69
2023-05-18T14:24:04.049Z,37.47
2023-05-18T14:26:33.104Z,37.46
2023-05-18T14:29:01.010Z,37.25
2023-05-18T14:31:28.768Z,37.34
2023-05-18T14:33:56.508Z,37.37
2023-05-18T14:36:24.318Z,36.92
2023-05-18T14:38:52.184Z,36.76
2023-05-18T14:41:21.306Z,36.74
2023-05-18T14:43:51.101Z,37.01
2023-05-18T14:46:18.919Z,37.24
2023-05-18T14:48:46.594Z,37.32
2023-05-18T14:51:15.842Z,36.99
2023-05-18T14:53:43.480Z,37.34
2023-05-18T14:56:12.269Z,36.82
2023-05-18T14:58:39.857Z,36.60
2023-05-18T15:01:08.803Z,36.79
2023-05-18T15:03:36.541Z,36.84
2023-05-18T15:06:04.316Z,36.90
2023-05-18T15:08:32.049Z,36.52
2023-05-18T15:10:59.776Z,36.87
2023-05-18T15:13:27.391Z,36.80
2023-05-18T15:15:55.257Z,37.01
2023-05-18T15:18:24.409Z,36.75
2023-05-18T15:20:52.400Z,36.75
2023-05-18T15:23:20.085Z,36.50
2023-05-18T15:25:47.852Z,36.68
2023-05-18T15:28:15.682Z,36.60
2023-05-18T15:30:43.287Z,36.85
2023-05-18T15:33:10.973Z,36.72
2023-05-18T15:35:39.972Z,36.86
2023-05-18T15:38:07.560Z,36.96
2023-05-18T15:40:35.197Z,36.96
2023-05-18T15:43:03.072Z,37.04
2023-05-18T15:45:30.753Z,36.47
2023-05-18T15:47:58.389Z,36.44
2023-05-18T15:50:26.699Z,36.81
2023-05-18T15:53:10.753Z,37.12
2023-05-18T15:55:38.869Z,36.79
2023-05-18T15:58:06.380Z,36.52
2023-05-18T16:00:33.952Z,36.56
2023-05-18T16:03:01.673Z,36.42
2023-05-18T16:05:29.428Z,36.67
2023-05-18T16:07:58.340Z,36.73
2023-05-18T16:10:25.950Z,36.58
2023-05-18T16:12:53.570Z,36.29
2023-05-18T16:15:24.381Z,36.78
2023-05-18T16:17:52.170Z,36.94
2023-05-18T16:20:21.074Z,36.49
2023-05-18T16:22:49.253Z,36.50
2023-05-18T16:25:18.238Z,36.90
2023-05-18T16:27:45.812Z,36.94
2023-05-18T16:30:13.733Z,37.14
2023-05-18T16:32:43.205Z,37.16
2023-05-18T16:35:11.170Z,36.90
2023-05-18T16:37:39.359Z,37.16
2023-05-18T16:40:08.377Z,37.34
2023-05-18T16:42:37.440Z,37.73
2023-05-18T16:45:05.655Z,37.72
2023-05-18T16:47:33.249Z,37.88
2023-05-18T16:50:01.416Z,37.99
2023-05-18T16:52:29.127Z,37.81
2023-05-18T16:54:56.679Z,38.12
2023-05-18T16:57:27.313Z,38.30
2023-05-18T16:59:56.564Z,38.21
2023-05-18T17:02:24.321Z,38.45
2023-05-18T17:04:52.262Z,38.63
2023-05-18T17:07:19.778Z,38.64
2023-05-18T17:09:47.299Z,38.64
2023-05-18T17:12:14.891Z,38.69
2023-05-18T17:14:42.421Z,38.90
2023-05-18T17:17:11.534Z,39.08
2023-05-18T17:19:40.293Z,39.16
2023-05-18T17:22:09.532Z,39.68
2023-05-18T17:24:37.230Z,39.39
2023-05-18T17:27:05.809Z,39.63
2023-05-18T17:29:33.408Z,39.89
2023-05-18T17:32:00.979Z,40.15
2023-05-18T17:34:30.581Z,40.41
2023-05-18T17:36:58.660Z,40.42
2023-05-18T17:39:26.454Z,40.61
2023-05-18T17:41:54.436Z,40.69
2023-05-18T17:44:22.098Z,40.88
2023-05-18T17:46:50.936Z,41.17
2023-05-18T17:49:18.651Z,41.77
2023-05-18T17:51:47.563Z,41.89
2023-05-18T17:54:15.314Z,42.04
2023-05-18T17:56:42.898Z,41.81
2023-05-18T17:59:10.763Z,41.82
2023-05-18T18:01:38.429Z,42.22
2023-05-18T18:04:06.169Z,42.41
2023-05-18T18:06:35.532Z,42.49
2023-05-18T18:09:05.561Z,42.58
2023-05-18T18:11:35.160Z,42.50
2023-05-18T18:14:03.190Z,42.65
2023-05-18T18:16:30.871Z,42.74
2023-05-18T18:18:59.417Z,43.04
2023-05-18T18:21:27.044Z,43.21
2023-05-18T18:23:54.728Z,43.29
2023-05-18T18:26:23.623Z,42.90
2023-05-18T18:28:51.197Z,43.28
2023-05-18T18:31:20.740Z,43.38
2023-05-18T18:33:50.279Z,43.47
2023-05-18T18:36:18.123Z,43.70
2023-05-18T18:38:46.001Z,43.75
2023-05-18T18:41:17.033Z,43.93
2023-05-18T18:43:45.977Z,44.09
2023-05-18T18:46:13.685Z,44.21
2023-05-18T18:48:41.261Z,44.34
2023-05-18T18:51:08.798Z,44.48
2023-05-18T18:53:36.347Z,44.62
2023-05-18T18:56:03.918Z,44.80
2023-05-18T18:58:31.502Z,44.99
2023-05-18T19:01:00.487Z,44.85
2023-05-18T19:03:28.200Z,45.07
2023-05-18T19:05:55.909Z,45.10
2023-05-18T19:08:23.512Z,45.17
2023-05-18T19:10:51.212Z,45.60
2023-05-18T19:13:18.750Z,45.69
2023-05-18T19:15:47.089Z,45.61
2023-05-18T19:18:16.130Z,45.75
2023-05-18T19:20:43.746Z,45.89
2023-05-18T19:23:11.421Z,46.10
2023-05-18T19:31:35.318Z,46.16
2023-05-18T19:34:17.954Z,46.46
2023-05-18T19:39:40.287Z,46.33
2023-05-18T19:45:20.633Z,46.69
2023-05-18T19:48:18.970Z,46.63
2023-05-18T19:50:53.561Z,46.77
2023-05-18T19:53:23.688Z,46.74
2023-05-18T19:56:19.359Z,47.26
2023-05-18T20:01:41.552Z,47.43
2023-05-18T20:11:30.411Z,47.63
2023-05-18T20:23:47.421Z,48.21
2023-05-18T20:30:33.434Z,48.47
2023-05-18T20:54:12.157Z,49.50
2023-05-18T20:56:51.772Z,49.56
2023-05-18T20:59:26.395Z,49.81
2023-05-18T21:01:57.079Z,49.89
2023-05-18T21:04:34.348Z,49.69
2023-05-18T21:07:02.181Z,50.06
2023-05-18T21:09:32.029Z,49.92
2023-05-18T21:11:59.634Z,49.99
2023-05-18T21:14:27.210Z,49.92
2023-05-18T21:16:54.859Z,49.83
2023-05-18T21:19:23.032Z,50.09
2023-05-18T21:21:50.641Z,49.99
2023-05-18T21:24:18.191Z,50.34
2023-05-18T21:26:47.134Z,50.33
2023-05-18T21:29:14.691Z,50.07
2023-05-18T21:31:42.330Z,50.35
2023-05-18T21:34:10.031Z,49.97
2023-05-18T21:36:37.626Z,50.31
2023-05-18T21:39:09.004Z,50.23
2023-05-18T21:41:39.179Z,50.27
2023-05-18T21:44:08.131Z,50.32
2023-05-18T21:46:36.470Z,50.09
2023-05-18T21:49:05.399Z,50.47
2023-05-18T21:51:33.160Z,50.35
2023-05-18T21:54:01.252Z,50.35
2023-05-18T21:56:29.852Z,50.25
2023-05-18T21:58:57.801Z,50.16
2023-05-18T22:01:26.724Z,50.17
2023-05-18T22:03:54.807Z,51.40
2023-05-18T22:06:22.435Z,50.32
2023-05-18T22:08:51.474Z,49.99
2023-05-18T22:11:19.028Z,49.78
2023-05-18T22:13:46.616Z,49.73
2023-05-18T22:16:14.277Z,49.57
2023-05-18T22:18:43.200Z,49.33
2023-05-18T22:21:10.765Z,49.02
2023-05-18T22:23:39.150Z,48.97
2023-05-18T22:26:07.072Z,48.78
2023-05-18T22:28:34.700Z,48.77
2023-05-18T22:31:02.273Z,48.87
2023-05-18T22:33:29.849Z,48.98
2023-05-18T22:35:58.775Z,49.06
2023-05-18T22:38:26.791Z,48.93
2023-05-18T22:40:54.374Z,48.83
2023-05-18T22:43:21.936Z,49.10
2023-05-18T22:45:49.837Z,49.10
2023-05-18T22:48:17.471Z,49.34
2023-05-18T22:50:45.031Z,49.09
2023-05-18T22:53:13.986Z,49.29
2023-05-18T22:55:41.581Z,49.21
2023-05-18T22:58:09.182Z,49.26
2023-05-18T23:00:36.713Z,49.47
2023-05-18T23:03:04.565Z,49.75
2023-05-18T23:05:32.739Z,50.08
2023-05-18T23:08:02.675Z,50.34
2023-05-18T23:10:31.925Z,50.72
2023-05-18T23:12:59.837Z,50.81
2023-05-18T23:15:27.782Z,50.89
2023-05-18T23:17:55.498Z,51.28
2023-05-18T23:20:23.715Z,51.47
2023-05-18T23:22:51.504Z,51.95
2023-05-18T23:25:19.294Z,51.97
2023-05-18T23:27:48.183Z,52.32
2023-05-18T23:30:16.003Z,52.52
2023-05-18T23:32:45.385Z,52.58
2023-05-18T23:35:14.498Z,53.11
2023-05-18T23:37:43.582Z,52.96
2023-05-18T23:40:12.953Z,53.09
2023-05-18T23:42:41.475Z,53.56
2023-05-18T23:45:11.879Z,53.83
2023-05-18T23:47:39.934Z,53.50
2023-05-18T23:50:09.008Z,53.67
2023-05-18T23:52:37.656Z,53.82
2023-05-18T23:55:08.298Z,53.95
2023-05-18T23:57:36.274Z,53.97
